TimePDT,TemperatureF,Dew PointF,Humidity,Sea Level PressureIn,VisibilityMPH,Wind Direction,Wind SpeedMPH,Gust SpeedMPH,PrecipitationIn,Events,Conditions,WindDirDegrees,DateUTC
12:53 AM,75.9,48.0,37,29.77,10.0,NNE,6.9,-,N/A,,Clear,20,2013-08-10 07:53:00
1:53 AM,72.0,48.9,44,29.79,10.0,NNW,9.2,-,N/A,,Clear,340,2013-08-10 08:53:00
2:53 AM,72.0,48.0,43,29.78,10.0,NNW,5.8,-,N/A,,Clear,330,2013-08-10 09:53:00
3:53 AM,75.0,48.9,40,29.84,10.0,Variable,4.6,-,N/A,,Overcast,0,2013-08-10 10:53:00
4:03 AM,73.4,50.0,44,29.89,10.0,SSW,8.1,-,0.00,Rain-Thunderstorm,Light Thunderstorms and Rain,200,2013-08-10 11:03:00
4:20 AM,68.0,53.6,60,29.93,2.0,WSW,9.2,-,0.13,Rain-Thunderstorm,Heavy Thunderstorms and Rain,250,2013-08-10 11:20:00
4:29 AM,66.2,55.4,68,29.94,8.0,SW,10.4,-,0.14,Rain-Thunderstorm,Light Thunderstorms and Rain,220,2013-08-10 11:29:00
4:41 AM,69.8,57.2,64,29.94,-9999.0,SSW,9.2,-,0.14,Thunderstorm,Thunderstorm,210,2013-08-10 11:41:00
4:53 AM,69.1,57.9,68,29.89,3.0,SW,13.8,19.6,0.28,Rain-Thunderstorm,Heavy Rain,220,2013-08-10 11:53:00
5:53 AM,68.0,62.1,81,29.96,10.0,East,8.1,-,0.05,Thunderstorm,Thunderstorm,100,2013-08-10 12:53:00
6:20 AM,68.0,62.6,83,29.99,10.0,Calm,Calm,-,N/A,,Mostly Cloudy,0,2013-08-10 13:20:00
6:53 AM,64.9,62.1,90,29.95,10.0,WNW,6.9,-,0.00,,Mostly Cloudy,290,2013-08-10 13:53:00
7:53 AM,68.0,61.0,78,29.92,10.0,NNW,8.1,-,0.01,,Scattered Clouds,340,2013-08-10 14:53:00
8:53 AM,71.1,62.1,73,29.93,10.0,Calm,Calm,-,N/A,,Clear,0,2013-08-10 15:53:00
9:53 AM,75.9,60.1,58,29.94,10.0,Calm,Calm,-,N/A,,Clear,0,2013-08-10 16:53:00
10:53 AM,80.1,61.0,52,29.94,10.0,NNE,5.8,-,N/A,,Clear,30,2013-08-10 17:53:00
11:53 AM,84.0,57.0,40,29.93,10.0,Variable,5.8,-,N/A,,Clear,0,2013-08-10 18:53:00
12:53 PM,84.9,54.0,34,29.91,10.0,West,3.5,-,N/A,,Clear,280,2013-08-10 19:53:00
1:53 PM,88.0,54.0,31,29.90,10.0,Calm,Calm,-,N/A,,Clear,0,2013-08-10 20:53:00
2:53 PM,90.0,53.1,28,29.87,10.0,Calm,Calm,-,N/A,,Clear,0,2013-08-10 21:53:00
3:53 PM,91.0,48.9,23,29.85,10.0,South,4.6,-,N/A,,Clear,190,2013-08-10 22:53:00
4:53 PM,91.9,50.0,24,29.83,10.0,Variable,3.5,-,N/A,,Clear,0,2013-08-10 23:53:00
5:53 PM,93.0,50.0,23,29.81,10.0,Calm,Calm,-,N/A,,Clear,0,2013-08-11 00:53:00
6:53 PM,91.0,51.1,25,29.80,10.0,WSW,3.5,-,N/A,,Clear,240,2013-08-11 01:53:00
7:53 PM,84.0,55.0,37,29.81,10.0,WSW,5.8,-,N/A,,Clear,250,2013-08-11 02:53:00
8:53 PM,80.1,55.9,43,29.83,10.0,NW,10.4,-,N/A,,Clear,310,2013-08-11 03:53:00
9:53 PM,77.0,57.0,50,29.81,10.0,WNW,9.2,-,N/A,,Clear,290,2013-08-11 04:53:00
10:53 PM,75.9,55.9,50,29.83,10.0,NW,5.8,-,N/A,,Clear,320,2013-08-11 05:53:00
11:53 PM,73.9,55.9,53,29.84,10.0,NW,3.5,-,N/A,,Clear,310,2013-08-11 06:53:00